Langara, Canada
Current Conditions -  °F | °C
As of 6:36 AM on Friday 24 Oct 2014 (Local Time) from PAHY Reporting Station
Overcast Overcast  
Wind Chill: 10°   Ceiling: 2400
Heat Index: 10°   Visibility: 10mi
Dew Point:   Wind: 9mph
Humidity: 66%   Direction: 40°NE
Pressure: 29.76"   Gusts: 25mph
Location:  54.23°N, 133°W
Report Text: PAHY 241336Z AUTO 04008G22KT 10SM BKN024 BKN031 OVC039 10/04 A2976 RMK AO1 P0001
Loading
Personal Weather Stations






























Interactive Weather Map
Tropical Storm Tracking
New forecast layout! Learn more

10-Day Weather Forecast

Advertisements
Track Severe Weather on mobile